sensor_id;sensor_type;location;lat;lon;timestamp;P1;durP1;ratioP1;P2;durP2;ratioP2
6679;SDS011;3376;42.664;23.346;2022-09-21T00:01:51;3.70;;;3.50;;
6679;SDS011;3376;42.664;23.346;2022-09-21T00:04:18;2.93;;;2.83;;
6679;SDS011;3376;42.664;23.346;2022-09-21T00:06:45;3.97;;;3.77;;
6679;SDS011;3376;42.664;23.346;2022-09-21T00:09:12;4.87;;;4.67;;
6679;SDS011;3376;42.664;23.346;2022-09-21T00:11:38;7.10;;;3.40;;
6679;SDS011;3376;42.664;23.346;2022-09-21T00:14:06;3.97;;;3.77;;
6679;SDS011;3376;42.664;23.346;2022-09-21T00:16:36;3.43;;;3.33;;
6679;SDS011;3376;42.664;23.346;2022-09-21T00:19:04;4.07;;;3.87;;
6679;SDS011;3376;42.664;23.346;2022-09-21T00:21:31;4.30;;;4.00;;
6679;SDS011;3376;42.664;23.346;2022-09-21T00:23:59;4.70;;;4.40;;
6679;SDS011;3376;42.664;23.346;2022-09-21T00:26:27;3.40;;;3.20;;
6679;SDS011;3376;42.664;23.346;2022-09-21T00:28:55;3.90;;;3.60;;
6679;SDS011;3376;42.664;23.346;2022-09-21T00:31:23;3.43;;;3.33;;
6679;SDS011;3376;42.664;23.346;2022-09-21T00:33:51;4.13;;;3.93;;
6679;SDS011;3376;42.664;23.346;2022-09-21T00:36:20;4.13;;;3.93;;
6679;SDS011;3376;42.664;23.346;2022-09-21T00:38:49;3.90;;;3.60;;
6679;SDS011;3376;42.664;23.346;2022-09-21T00:41:18;4.40;;;4.20;;
6679;SDS011;3376;42.664;23.346;2022-09-21T00:43:45;4.93;;;4.53;;
6679;SDS011;3376;42.664;23.346;2022-09-21T00:46:14;3.80;;;3.60;;
6679;SDS011;3376;42.664;23.346;2022-09-21T00:48:49;4.03;;;3.83;;
6679;SDS011;3376;42.664;23.346;2022-09-21T00:51:16;3.30;;;3.20;;
6679;SDS011;3376;42.664;23.346;2022-09-21T00:53:44;3.87;;;3.50;;
6679;SDS011;3376;42.664;23.346;2022-09-21T00:56:14;3.53;;;3.33;;
6679;SDS011;3376;42.664;23.346;2022-09-21T00:58:42;3.53;;;3.33;;
6679;SDS011;3376;42.664;23.346;2022-09-21T01:01:12;3.67;;;3.47;;
6679;SDS011;3376;42.664;23.346;2022-09-21T01:03:42;4.27;;;4.07;;
6679;SDS011;3376;42.664;23.346;2022-09-21T01:06:10;3.87;;;3.57;;
6679;SDS011;3376;42.664;23.346;2022-09-21T01:08:37;4.10;;;3.37;;
6679;SDS011;3376;42.664;23.346;2022-09-21T01:11:19;3.63;;;3.50;;
6679;SDS011;3376;42.664;23.346;2022-09-21T01:13:58;4.20;;;3.90;;
6679;SDS011;3376;42.664;23.346;2022-09-21T01:16:38;4.37;;;4.17;;
6679;SDS011;3376;42.664;23.346;2022-09-21T01:19:14;4.27;;;4.03;;
6679;SDS011;3376;42.664;23.346;2022-09-21T01:21:59;3.93;;;3.73;;
6679;SDS011;3376;42.664;23.346;2022-09-21T01:24:37;3.40;;;3.30;;
6679;SDS011;3376;42.664;23.346;2022-09-21T01:27:23;3.93;;;3.60;;
6679;SDS011;3376;42.664;23.346;2022-09-21T01:30:02;4.03;;;3.73;;
6679;SDS011;3376;42.664;23.346;2022-09-21T01:32:33;3.50;;;3.40;;
6679;SDS011;3376;42.664;23.346;2022-09-21T01:35:05;4.70;;;3.97;;
6679;SDS011;3376;42.664;23.346;2022-09-21T01:37:36;3.60;;;3.50;;
6679;SDS011;3376;42.664;23.346;2022-09-21T01:40:08;3.37;;;3.17;;
6679;SDS011;3376;42.664;23.346;2022-09-21T01:42:38;3.57;;;3.30;;
6679;SDS011;3376;42.664;23.346;2022-09-21T01:45:09;3.87;;;3.77;;
6679;SDS011;3376;42.664;23.346;2022-09-21T01:47:41;3.73;;;3.60;;
6679;SDS011;3376;42.664;23.346;2022-09-21T01:50:11;3.80;;;3.67;;
6679;SDS011;3376;42.664;23.346;2022-09-21T01:52:41;3.60;;;3.40;;
6679;SDS011;3376;42.664;23.346;2022-09-21T01:55:13;3.47;;;3.37;;
6679;SDS011;3376;42.664;23.346;2022-09-21T01:57:44;3.87;;;3.67;;
6679;SDS011;3376;42.664;23.346;2022-09-21T02:00:18;3.50;;;3.30;;
6679;SDS011;3376;42.664;23.346;2022-09-21T02:02:46;3.67;;;3.50;;
6679;SDS011;3376;42.664;23.346;2022-09-21T02:05:18;3.97;;;3.87;;
6679;SDS011;3376;42.664;23.346;2022-09-21T02:07:46;4.40;;;4.10;;
6679;SDS011;3376;42.664;23.346;2022-09-21T02:10:16;4.37;;;4.07;;
6679;SDS011;3376;42.664;23.346;2022-09-21T02:12:47;3.40;;;3.30;;
6679;SDS011;3376;42.664;23.346;2022-09-21T02:15:20;7.73;;;4.40;;
6679;SDS011;3376;42.664;23.346;2022-09-21T02:17:55;3.43;;;3.33;;
6679;SDS011;3376;42.664;23.346;2022-09-21T02:20:31;6.17;;;3.73;;
6679;SDS011;3376;42.664;23.346;2022-09-21T02:23:02;4.10;;;4.00;;
6679;SDS011;3376;42.664;23.346;2022-09-21T02:25:38;5.47;;;3.87;;
6679;SDS011;3376;42.664;23.346;2022-09-21T02:28:12;3.73;;;3.43;;
6679;SDS011;3376;42.664;23.346;2022-09-21T02:30:52;4.07;;;3.43;;
6679;SDS011;3376;42.664;23.346;2022-09-21T02:33:25;3.63;;;3.53;;
6679;SDS011;3376;42.664;23.346;2022-09-21T02:35:57;3.33;;;3.13;;
6679;SDS011;3376;42.664;23.346;2022-09-21T02:38:33;7.23;;;3.70;;
6679;SDS011;3376;42.664;23.346;2022-09-21T02:41:03;3.90;;;3.50;;
6679;SDS011;3376;42.664;23.346;2022-09-21T02:43:38;3.70;;;3.40;;
6679;SDS011;3376;42.664;23.346;2022-09-21T02:46:12;4.23;;;3.93;;
6679;SDS011;3376;42.664;23.346;2022-09-21T02:48:43;3.93;;;3.33;;
6679;SDS011;3376;42.664;23.346;2022-09-21T02:51:15;3.73;;;3.60;;
6679;SDS011;3376;42.664;23.346;2022-09-21T02:53:45;4.97;;;3.23;;
6679;SDS011;3376;42.664;23.346;2022-09-21T02:56:14;3.40;;;3.30;;
6679;SDS011;3376;42.664;23.346;2022-09-21T02:58:43;3.40;;;3.10;;
6679;SDS011;3376;42.664;23.346;2022-09-21T03:01:15;3.73;;;3.53;;
6679;SDS011;3376;42.664;23.346;2022-09-21T03:03:44;4.03;;;3.50;;
6679;SDS011;3376;42.664;23.346;2022-09-21T03:06:10;3.60;;;3.30;;
6679;SDS011;3376;42.664;23.346;2022-09-21T03:08:37;3.87;;;3.57;;
6679;SDS011;3376;42.664;23.346;2022-09-21T03:11:05;3.50;;;3.40;;
6679;SDS011;3376;42.664;23.346;2022-09-21T03:13:32;4.00;;;3.80;;
6679;SDS011;3376;42.664;23.346;2022-09-21T03:16:00;3.43;;;3.23;;
6679;SDS011;3376;42.664;23.346;2022-09-21T03:18:29;4.23;;;3.93;;
6679;SDS011;3376;42.664;23.346;2022-09-21T03:20:57;3.70;;;3.50;;
6679;SDS011;3376;42.664;23.346;2022-09-21T03:23:24;5.37;;;4.00;;
6679;SDS011;3376;42.664;23.346;2022-09-21T03:25:51;4.83;;;3.77;;
6679;SDS011;3376;42.664;23.346;2022-09-21T03:28:18;3.67;;;3.57;;
6679;SDS011;3376;42.664;23.346;2022-09-21T03:30:46;3.40;;;3.23;;
6679;SDS011;3376;42.664;23.346;2022-09-21T03:33:14;4.03;;;3.00;;
6679;SDS011;3376;42.664;23.346;2022-09-21T03:35:42;4.17;;;3.77;;
6679;SDS011;3376;42.664;23.346;2022-09-21T03:38:10;3.50;;;3.27;;
6679;SDS011;3376;42.664;23.346;2022-09-21T03:40:37;4.20;;;3.90;;
6679;SDS011;3376;42.664;23.346;2022-09-21T03:43:03;3.50;;;3.30;;
6679;SDS011;3376;42.664;23.346;2022-09-21T03:45:30;3.20;;;2.90;;
6679;SDS011;3376;42.664;23.346;2022-09-21T03:47:57;3.13;;;2.93;;
6679;SDS011;3376;42.664;23.346;2022-09-21T03:50:25;3.47;;;3.23;;
6679;SDS011;3376;42.664;23.346;2022-09-21T03:52:55;3.37;;;3.07;;
6679;SDS011;3376;42.664;23.346;2022-09-21T03:55:23;3.20;;;3.10;;
6679;SDS011;3376;42.664;23.346;2022-09-21T03:57:50;2.83;;;2.73;;
6679;SDS011;3376;42.664;23.346;2022-09-21T04:00:18;5.37;;;3.40;;
6679;SDS011;3376;42.664;23.346;2022-09-21T04:02:45;3.10;;;3.00;;
6679;SDS011;3376;42.664;23.346;2022-09-21T04:05:13;3.60;;;3.30;;
6679;SDS011;3376;42.664;23.346;2022-09-21T04:07:41;3.90;;;3.40;;
6679;SDS011;3376;42.664;23.346;2022-09-21T04:10:12;3.67;;;3.50;;
6679;SDS011;3376;42.664;23.346;2022-09-21T04:12:40;4.10;;;3.87;;
6679;SDS011;3376;42.664;23.346;2022-09-21T04:15:08;7.50;;;3.87;;
6679;SDS011;3376;42.664;23.346;2022-09-21T04:17:36;3.63;;;3.50;;
6679;SDS011;3376;42.664;23.346;2022-09-21T04:20:03;4.70;;;4.40;;
6679;SDS011;3376;42.664;23.346;2022-09-21T04:22:31;4.83;;;4.53;;
6679;SDS011;3376;42.664;23.346;2022-09-21T04:24:57;4.73;;;3.70;;
6679;SDS011;3376;42.664;23.346;2022-09-21T04:27:27;3.93;;;3.60;;
6679;SDS011;3376;42.664;23.346;2022-09-21T04:29:53;5.33;;;4.23;;
6679;SDS011;3376;42.664;23.346;2022-09-21T04:32:20;4.87;;;4.67;;
6679;SDS011;3376;42.664;23.346;2022-09-21T04:34:47;4.53;;;4.23;;
6679;SDS011;3376;42.664;23.346;2022-09-21T04:37:14;4.60;;;4.40;;
6679;SDS011;3376;42.664;23.346;2022-09-21T04:39:41;8.70;;;4.17;;
6679;SDS011;3376;42.664;23.346;2022-09-21T04:42:07;4.53;;;4.10;;
6679;SDS011;3376;42.664;23.346;2022-09-21T04:44:36;4.23;;;3.93;;
6679;SDS011;3376;42.664;23.346;2022-09-21T04:47:03;4.37;;;4.17;;
6679;SDS011;3376;42.664;23.346;2022-09-21T04:49:30;5.37;;;4.70;;
6679;SDS011;3376;42.664;23.346;2022-09-21T04:51:57;5.07;;;4.57;;
6679;SDS011;3376;42.664;23.346;2022-09-21T04:54:24;5.57;;;4.60;;
6679;SDS011;3376;42.664;23.346;2022-09-21T04:56:51;4.30;;;4.10;;
6679;SDS011;3376;42.664;23.346;2022-09-21T04:59:17;6.33;;;3.67;;
6679;SDS011;3376;42.664;23.346;2022-09-21T05:01:45;4.77;;;4.20;;
6679;SDS011;3376;42.664;23.346;2022-09-21T05:04:12;4.17;;;3.93;;
6679;SDS011;3376;42.664;23.346;2022-09-21T05:06:39;4.90;;;4.60;;
6679;SDS011;3376;42.664;23.346;2022-09-21T05:09:06;5.27;;;4.90;;
6679;SDS011;3376;42.664;23.346;2022-09-21T05:11:51;6.10;;;5.60;;
6679;SDS011;3376;42.664;23.346;2022-09-21T05:14:18;5.97;;;5.47;;
6679;SDS011;3376;42.664;23.346;2022-09-21T05:16:46;7.60;;;5.97;;
6679;SDS011;3376;42.664;23.346;2022-09-21T05:19:13;5.90;;;5.10;;
6679;SDS011;3376;42.664;23.346;2022-09-21T05:21:40;5.50;;;5.20;;
6679;SDS011;3376;42.664;23.346;2022-09-21T05:24:07;5.67;;;4.77;;
6679;SDS011;3376;42.664;23.346;2022-09-21T05:26:34;6.43;;;6.00;;
6679;SDS011;3376;42.664;23.346;2022-09-21T05:29:01;5.50;;;5.00;;
6679;SDS011;3376;42.664;23.346;2022-09-21T05:31:35;5.30;;;4.83;;
6679;SDS011;3376;42.664;23.346;2022-09-21T05:34:11;6.40;;;4.73;;
6679;SDS011;3376;42.664;23.346;2022-09-21T05:36:51;6.07;;;5.20;;
6679;SDS011;3376;42.664;23.346;2022-09-21T05:39:24;5.40;;;5.10;;
6679;SDS011;3376;42.664;23.346;2022-09-21T05:41:51;5.37;;;4.87;;
6679;SDS011;3376;42.664;23.346;2022-09-21T05:44:19;6.67;;;5.13;;
6679;SDS011;3376;42.664;23.346;2022-09-21T05:46:48;5.00;;;4.80;;
6679;SDS011;3376;42.664;23.346;2022-09-21T05:49:21;6.00;;;4.70;;
6679;SDS011;3376;42.664;23.346;2022-09-21T05:51:55;5.73;;;5.27;;
6679;SDS011;3376;42.664;23.346;2022-09-21T05:54:31;6.03;;;4.37;;
6679;SDS011;3376;42.664;23.346;2022-09-21T05:57:06;4.87;;;4.07;;
6679;SDS011;3376;42.664;23.346;2022-09-21T05:59:42;5.53;;;4.10;;
6679;SDS011;3376;42.664;23.346;2022-09-21T06:02:18;6.50;;;4.30;;
6679;SDS011;3376;42.664;23.346;2022-09-21T06:04:53;7.27;;;4.20;;
6679;SDS011;3376;42.664;23.346;2022-09-21T06:07:22;4.03;;;3.67;;
6679;SDS011;3376;42.664;23.346;2022-09-21T06:09:49;4.07;;;3.70;;
6679;SDS011;3376;42.664;23.346;2022-09-21T06:12:16;5.00;;;3.37;;
6679;SDS011;3376;42.664;23.346;2022-09-21T06:14:43;3.57;;;3.27;;
6679;SDS011;3376;42.664;23.346;2022-09-21T06:17:10;5.13;;;3.70;;
6679;SDS011;3376;42.664;23.346;2022-09-21T06:19:37;5.03;;;4.43;;
6679;SDS011;3376;42.664;23.346;2022-09-21T06:22:05;6.03;;;4.80;;
6679;SDS011;3376;42.664;23.346;2022-09-21T06:24:32;5.63;;;5.33;;
6679;SDS011;3376;42.664;23.346;2022-09-21T06:26:58;9.77;;;4.57;;
6679;SDS011;3376;42.664;23.346;2022-09-21T06:29:25;4.97;;;4.77;;
6679;SDS011;3376;42.664;23.346;2022-09-21T06:31:52;5.63;;;4.60;;
6679;SDS011;3376;42.664;23.346;2022-09-21T06:34:18;5.23;;;4.87;;
6679;SDS011;3376;42.664;23.346;2022-09-21T06:36:45;4.70;;;4.10;;
6679;SDS011;3376;42.664;23.346;2022-09-21T06:39:13;3.40;;;3.10;;
6679;SDS011;3376;42.664;23.346;2022-09-21T06:41:40;3.80;;;2.83;;
6679;SDS011;3376;42.664;23.346;2022-09-21T06:44:07;2.37;;;2.27;;
6679;SDS011;3376;42.664;23.346;2022-09-21T06:46:34;2.90;;;2.80;;
6679;SDS011;3376;42.664;23.346;2022-09-21T06:49:00;2.20;;;2.10;;
6679;SDS011;3376;42.664;23.346;2022-09-21T06:51:27;4.10;;;2.20;;
6679;SDS011;3376;42.664;23.346;2022-09-21T06:53:54;1.90;;;1.47;;
6679;SDS011;3376;42.664;23.346;2022-09-21T06:56:23;1.67;;;1.50;;
6679;SDS011;3376;42.664;23.346;2022-09-21T06:58:51;2.03;;;1.70;;
6679;SDS011;3376;42.664;23.346;2022-09-21T07:01:18;2.00;;;1.90;;
6679;SDS011;3376;42.664;23.346;2022-09-21T07:03:47;4.90;;;2.10;;
6679;SDS011;3376;42.664;23.346;2022-09-21T07:06:15;1.70;;;1.60;;
6679;SDS011;3376;42.664;23.346;2022-09-21T07:08:44;1.80;;;1.70;;
6679;SDS011;3376;42.664;23.346;2022-09-21T07:11:12;1.60;;;1.50;;
6679;SDS011;3376;42.664;23.346;2022-09-21T07:13:40;1.60;;;1.50;;
6679;SDS011;3376;42.664;23.346;2022-09-21T07:16:08;1.50;;;1.40;;
6679;SDS011;3376;42.664;23.346;2022-09-21T07:18:35;3.33;;;1.80;;
6679;SDS011;3376;42.664;23.346;2022-09-21T07:21:03;1.90;;;1.80;;
6679;SDS011;3376;42.664;23.346;2022-09-21T07:23:31;1.40;;;1.30;;
6679;SDS011;3376;42.664;23.346;2022-09-21T07:26:00;1.43;;;1.20;;
6679;SDS011;3376;42.664;23.346;2022-09-21T07:28:27;1.37;;;1.37;;
6679;SDS011;3376;42.664;23.346;2022-09-21T07:30:56;3.27;;;1.80;;
6679;SDS011;3376;42.664;23.346;2022-09-21T07:33:23;1.90;;;1.80;;
6679;SDS011;3376;42.664;23.346;2022-09-21T07:35:51;2.83;;;1.53;;
6679;SDS011;3376;42.664;23.346;2022-09-21T07:38:20;2.00;;;1.20;;
6679;SDS011;3376;42.664;23.346;2022-09-21T07:40:47;1.40;;;1.40;;
6679;SDS011;3376;42.664;23.346;2022-09-21T07:43:14;2.20;;;1.70;;
6679;SDS011;3376;42.664;23.346;2022-09-21T07:45:42;2.17;;;1.40;;
6679;SDS011;3376;42.664;23.346;2022-09-21T07:48:10;1.63;;;1.53;;
6679;SDS011;3376;42.664;23.346;2022-09-21T07:50:37;1.70;;;1.37;;
6679;SDS011;3376;42.664;23.346;2022-09-21T07:53:04;6.03;;;1.80;;
6679;SDS011;3376;42.664;23.346;2022-09-21T07:55:30;2.07;;;1.30;;
6679;SDS011;3376;42.664;23.346;2022-09-21T07:57:57;1.80;;;1.80;;
6679;SDS011;3376;42.664;23.346;2022-09-21T08:00:41;2.20;;;1.47;;
6679;SDS011;3376;42.664;23.346;2022-09-21T08:03:10;2.03;;;1.80;;
6679;SDS011;3376;42.664;23.346;2022-09-21T08:05:37;1.50;;;1.50;;
6679;SDS011;3376;42.664;23.346;2022-09-21T08:08:03;2.30;;;1.87;;
6679;SDS011;3376;42.664;23.346;2022-09-21T08:10:30;3.40;;;1.80;;
6679;SDS011;3376;42.664;23.346;2022-09-21T08:12:58;3.10;;;1.50;;
6679;SDS011;3376;42.664;23.346;2022-09-21T08:15:24;1.80;;;1.63;;
6679;SDS011;3376;42.664;23.346;2022-09-21T08:17:52;2.20;;;1.63;;
6679;SDS011;3376;42.664;23.346;2022-09-21T08:20:20;3.63;;;1.80;;
6679;SDS011;3376;42.664;23.346;2022-09-21T08:22:47;2.67;;;1.63;;
6679;SDS011;3376;42.664;23.346;2022-09-21T08:25:14;3.43;;;1.80;;
6679;SDS011;3376;42.664;23.346;2022-09-21T08:27:41;2.00;;;1.83;;
6679;SDS011;3376;42.664;23.346;2022-09-21T08:30:08;1.70;;;1.60;;
6679;SDS011;3376;42.664;23.346;2022-09-21T08:32:38;3.83;;;1.80;;
6679;SDS011;3376;42.664;23.346;2022-09-21T08:35:05;1.83;;;1.50;;
6679;SDS011;3376;42.664;23.346;2022-09-21T08:37:35;1.67;;;1.57;;
6679;SDS011;3376;42.664;23.346;2022-09-21T08:40:02;1.73;;;1.60;;
6679;SDS011;3376;42.664;23.346;2022-09-21T08:42:38;5.97;;;1.33;;
6679;SDS011;3376;42.664;23.346;2022-09-21T08:45:10;4.60;;;1.37;;
6679;SDS011;3376;42.664;23.346;2022-09-21T08:47:41;2.83;;;1.63;;
6679;SDS011;3376;42.664;23.346;2022-09-21T08:53:00;1.90;;;1.80;;
6679;SDS011;3376;42.664;23.346;2022-09-21T08:55:30;2.87;;;1.73;;
6679;SDS011;3376;42.664;23.346;2022-09-21T08:57:57;2.97;;;1.50;;
6679;SDS011;3376;42.664;23.346;2022-09-21T09:00:24;1.73;;;1.27;;
6679;SDS011;3376;42.664;23.346;2022-09-21T09:05:45;2.70;;;1.40;;
6679;SDS011;3376;42.664;23.346;2022-09-21T09:08:29;1.07;;;1.00;;
6679;SDS011;3376;42.664;23.346;2022-09-21T09:11:13;1.13;;;1.03;;
6679;SDS011;3376;42.664;23.346;2022-09-21T09:13:53;1.40;;;1.40;;
6679;SDS011;3376;42.664;23.346;2022-09-21T09:16:33;1.57;;;0.90;;
6679;SDS011;3376;42.664;23.346;2022-09-21T09:19:09;1.23;;;0.80;;
6679;SDS011;3376;42.664;23.346;2022-09-21T09:21:44;1.80;;;1.20;;
6679;SDS011;3376;42.664;23.346;2022-09-21T09:24:14;1.53;;;1.43;;
6679;SDS011;3376;42.664;23.346;2022-09-21T09:26:45;1.00;;;1.00;;
6679;SDS011;3376;42.664;23.346;2022-09-21T09:29:19;4.77;;;0.90;;
6679;SDS011;3376;42.664;23.346;2022-09-21T09:31:50;1.33;;;1.33;;
6679;SDS011;3376;42.664;23.346;2022-09-21T09:34:20;1.80;;;1.40;;
6679;SDS011;3376;42.664;23.346;2022-09-21T09:36:51;0.90;;;0.90;;
6679;SDS011;3376;42.664;23.346;2022-09-21T09:39:25;1.70;;;1.47;;
6679;SDS011;3376;42.664;23.346;2022-09-21T09:42:00;0.90;;;0.90;;
6679;SDS011;3376;42.664;23.346;2022-09-21T09:44:47;1.97;;;1.43;;
6679;SDS011;3376;42.664;23.346;2022-09-21T09:47:31;1.43;;;1.17;;
6679;SDS011;3376;42.664;23.346;2022-09-21T09:50:08;1.40;;;1.30;;
6679;SDS011;3376;42.664;23.346;2022-09-21T09:52:38;0.63;;;0.63;;
6679;SDS011;3376;42.664;23.346;2022-09-21T09:55:13;1.23;;;1.03;;
6679;SDS011;3376;42.664;23.346;2022-09-21T09:57:44;1.20;;;1.20;;
6679;SDS011;3376;42.664;23.346;2022-09-21T10:00:12;1.37;;;1.00;;
6679;SDS011;3376;42.664;23.346;2022-09-21T10:02:45;1.90;;;0.90;;
6679;SDS011;3376;42.664;23.346;2022-09-21T10:05:18;0.80;;;0.80;;
6679;SDS011;3376;42.664;23.346;2022-09-21T10:07:47;1.00;;;1.00;;
6679;SDS011;3376;42.664;23.346;2022-09-21T10:10:30;1.30;;;1.20;;
6679;SDS011;3376;42.664;23.346;2022-09-21T10:13:04;3.30;;;1.27;;
6679;SDS011;3376;42.664;23.346;2022-09-21T10:15:39;1.50;;;0.77;;
6679;SDS011;3376;42.664;23.346;2022-09-21T10:18:13;1.23;;;1.10;;
6679;SDS011;3376;42.664;23.346;2022-09-21T10:20:50;1.90;;;1.07;;
6679;SDS011;3376;42.664;23.346;2022-09-21T10:23:22;0.83;;;0.83;;
6679;SDS011;3376;42.664;23.346;2022-09-21T10:25:59;0.90;;;0.90;;
6679;SDS011;3376;42.664;23.346;2022-09-21T10:28:29;0.70;;;0.70;;
6679;SDS011;3376;42.664;23.346;2022-09-21T10:31:07;1.10;;;0.50;;
6679;SDS011;3376;42.664;23.346;2022-09-21T10:33:45;0.63;;;0.60;;
6679;SDS011;3376;42.664;23.346;2022-09-21T10:36:25;0.60;;;0.60;;
6679;SDS011;3376;42.664;23.346;2022-09-21T10:38:54;0.63;;;0.63;;
6679;SDS011;3376;42.664;23.346;2022-09-21T10:41:23;0.80;;;0.80;;
6679;SDS011;3376;42.664;23.346;2022-09-21T10:43:50;0.40;;;0.40;;
6679;SDS011;3376;42.664;23.346;2022-09-21T10:46:31;0.60;;;0.60;;
6679;SDS011;3376;42.664;23.346;2022-09-21T10:48:59;0.93;;;0.93;;
6679;SDS011;3376;42.664;23.346;2022-09-21T10:51:28;2.00;;;1.77;;
6679;SDS011;3376;42.664;23.346;2022-09-21T10:53:58;4.30;;;0.43;;
6679;SDS011;3376;42.664;23.346;2022-09-21T10:56:27;1.33;;;1.00;;
6679;SDS011;3376;42.664;23.346;2022-09-21T10:59:09;0.60;;;0.60;;
6679;SDS011;3376;42.664;23.346;2022-09-21T11:01:41;0.80;;;0.80;;
6679;SDS011;3376;42.664;23.346;2022-09-21T11:04:10;1.27;;;0.80;;
6679;SDS011;3376;42.664;23.346;2022-09-21T11:06:43;0.43;;;0.43;;
6679;SDS011;3376;42.664;23.346;2022-09-21T11:09:16;1.67;;;0.70;;
6679;SDS011;3376;42.664;23.346;2022-09-21T11:11:49;1.13;;;0.70;;
6679;SDS011;3376;42.664;23.346;2022-09-21T11:14:26;1.23;;;0.50;;
6679;SDS011;3376;42.664;23.346;2022-09-21T11:17:06;0.60;;;0.60;;
6679;SDS011;3376;42.664;23.346;2022-09-21T11:19:37;1.83;;;1.83;;
6679;SDS011;3376;42.664;23.346;2022-09-21T11:22:11;0.50;;;0.50;;
6679;SDS011;3376;42.664;23.346;2022-09-21T11:24:46;0.53;;;0.53;;
6679;SDS011;3376;42.664;23.346;2022-09-21T11:27:20;1.00;;;0.60;;
6679;SDS011;3376;42.664;23.346;2022-09-21T11:29:54;0.60;;;0.60;;
6679;SDS011;3376;42.664;23.346;2022-09-21T11:32:34;0.97;;;0.60;;
6679;SDS011;3376;42.664;23.346;2022-09-21T11:35:31;0.50;;;0.50;;
6679;SDS011;3376;42.664;23.346;2022-09-21T11:38:08;0.67;;;0.67;;
6679;SDS011;3376;42.664;23.346;2022-09-21T11:40:41;1.30;;;1.20;;
6679;SDS011;3376;42.664;23.346;2022-09-21T11:43:33;0.87;;;0.60;;
6679;SDS011;3376;42.664;23.346;2022-09-21T11:46:16;1.57;;;0.97;;
6679;SDS011;3376;42.664;23.346;2022-09-21T11:48:53;0.60;;;0.60;;
6679;SDS011;3376;42.664;23.346;2022-09-21T11:51:35;1.90;;;0.70;;
6679;SDS011;3376;42.664;23.346;2022-09-21T11:54:19;13.70;;;1.93;;
6679;SDS011;3376;42.664;23.346;2022-09-21T11:57:03;1.60;;;0.83;;
6679;SDS011;3376;42.664;23.346;2022-09-21T11:59:44;0.63;;;0.63;;
6679;SDS011;3376;42.664;23.346;2022-09-21T12:05:25;0.50;;;0.50;;
6679;SDS011;3376;42.664;23.346;2022-09-21T12:08:05;1.30;;;0.70;;
6679;SDS011;3376;42.664;23.346;2022-09-21T12:10:47;2.30;;;0.80;;
6679;SDS011;3376;42.664;23.346;2022-09-21T12:13:26;0.60;;;0.60;;
6679;SDS011;3376;42.664;23.346;2022-09-21T12:16:00;0.87;;;0.87;;
6679;SDS011;3376;42.664;23.346;2022-09-21T12:18:33;0.57;;;0.57;;
6679;SDS011;3376;42.664;23.346;2022-09-21T12:21:08;0.50;;;0.50;;
6679;SDS011;3376;42.664;23.346;2022-09-21T12:23:41;0.53;;;0.53;;
6679;SDS011;3376;42.664;23.346;2022-09-21T12:26:10;0.97;;;0.97;;
6679;SDS011;3376;42.664;23.346;2022-09-21T12:28:43;1.30;;;0.60;;
6679;SDS011;3376;42.664;23.346;2022-09-21T12:31:17;0.50;;;0.50;;
6679;SDS011;3376;42.664;23.346;2022-09-21T12:33:48;0.50;;;0.50;;
6679;SDS011;3376;42.664;23.346;2022-09-21T12:36:19;0.40;;;0.40;;
6679;SDS011;3376;42.664;23.346;2022-09-21T12:38:52;1.43;;;0.67;;
6679;SDS011;3376;42.664;23.346;2022-09-21T12:41:34;0.77;;;0.70;;
6679;SDS011;3376;42.664;23.346;2022-09-21T12:44:13;3.00;;;2.50;;
6679;SDS011;3376;42.664;23.346;2022-09-21T12:46:47;0.40;;;0.40;;
6679;SDS011;3376;42.664;23.346;2022-09-21T12:49:21;0.60;;;0.60;;
6679;SDS011;3376;42.664;23.346;2022-09-21T12:51:52;0.73;;;0.70;;
6679;SDS011;3376;42.664;23.346;2022-09-21T12:54:25;0.50;;;0.50;;
6679;SDS011;3376;42.664;23.346;2022-09-21T12:56:59;1.67;;;0.73;;
6679;SDS011;3376;42.664;23.346;2022-09-21T12:59:33;0.60;;;0.60;;
6679;SDS011;3376;42.664;23.346;2022-09-21T13:02:16;0.50;;;0.50;;
6679;SDS011;3376;42.664;23.346;2022-09-21T13:04:51;0.70;;;0.63;;
6679;SDS011;3376;42.664;23.346;2022-09-21T13:07:27;0.50;;;0.50;;
6679;SDS011;3376;42.664;23.346;2022-09-21T13:10:13;0.50;;;0.50;;
6679;SDS011;3376;42.664;23.346;2022-09-21T13:12:45;0.40;;;0.40;;
6679;SDS011;3376;42.664;23.346;2022-09-21T13:15:18;1.37;;;0.60;;
6679;SDS011;3376;42.664;23.346;2022-09-21T13:17:59;0.53;;;0.50;;
6679;SDS011;3376;42.664;23.346;2022-09-21T13:20:32;0.80;;;0.80;;
6679;SDS011;3376;42.664;23.346;2022-09-21T13:23:02;0.63;;;0.63;;
6679;SDS011;3376;42.664;23.346;2022-09-21T13:25:30;0.57;;;0.57;;
6679;SDS011;3376;42.664;23.346;2022-09-21T13:28:02;0.37;;;0.37;;
6679;SDS011;3376;42.664;23.346;2022-09-21T13:30:44;0.60;;;0.60;;
6679;SDS011;3376;42.664;23.346;2022-09-21T13:33:29;2.27;;;0.50;;
6679;SDS011;3376;42.664;23.346;2022-09-21T13:39:03;1.20;;;0.40;;
6679;SDS011;3376;42.664;23.346;2022-09-21T13:41:41;1.07;;;0.47;;
6679;SDS011;3376;42.664;23.346;2022-09-21T13:44:17;0.50;;;0.50;;
6679;SDS011;3376;42.664;23.346;2022-09-21T13:47:02;0.57;;;0.57;;
6679;SDS011;3376;42.664;23.346;2022-09-21T13:49:32;0.50;;;0.50;;
6679;SDS011;3376;42.664;23.346;2022-09-21T13:52:14;1.63;;;0.43;;
6679;SDS011;3376;42.664;23.346;2022-09-21T13:54:51;0.60;;;0.60;;
6679;SDS011;3376;42.664;23.346;2022-09-21T13:57:23;0.97;;;0.50;;
6679;SDS011;3376;42.664;23.346;2022-09-21T14:00:07;0.40;;;0.40;;
6679;SDS011;3376;42.664;23.346;2022-09-21T14:02:55;1.33;;;0.60;;
6679;SDS011;3376;42.664;23.346;2022-09-21T14:05:29;0.70;;;0.70;;
6679;SDS011;3376;42.664;23.346;2022-09-21T14:08:00;0.87;;;0.87;;
6679;SDS011;3376;42.664;23.346;2022-09-21T14:10:29;1.37;;;1.10;;
6679;SDS011;3376;42.664;23.346;2022-09-21T14:13:00;1.23;;;0.93;;
6679;SDS011;3376;42.664;23.346;2022-09-21T14:15:33;1.50;;;1.20;;
6679;SDS011;3376;42.664;23.346;2022-09-21T14:21:07;1.33;;;1.00;;
6679;SDS011;3376;42.664;23.346;2022-09-21T14:26:47;1.83;;;1.50;;
6679;SDS011;3376;42.664;23.346;2022-09-21T14:29:19;2.53;;;1.37;;
6679;SDS011;3376;42.664;23.346;2022-09-21T14:31:51;1.70;;;1.10;;
6679;SDS011;3376;42.664;23.346;2022-09-21T14:34:22;3.00;;;1.40;;
6679;SDS011;3376;42.664;23.346;2022-09-21T14:36:55;2.53;;;1.40;;
6679;SDS011;3376;42.664;23.346;2022-09-21T14:39:26;1.23;;;1.23;;
6679;SDS011;3376;42.664;23.346;2022-09-21T14:41:59;1.70;;;1.60;;
6679;SDS011;3376;42.664;23.346;2022-09-21T14:44:36;3.07;;;2.27;;
6679;SDS011;3376;42.664;23.346;2022-09-21T14:50:01;1.80;;;1.20;;
6679;SDS011;3376;42.664;23.346;2022-09-21T14:53:05;1.10;;;1.10;;
6679;SDS011;3376;42.664;23.346;2022-09-21T14:56:01;2.20;;;1.27;;
6679;SDS011;3376;42.664;23.346;2022-09-21T14:58:42;1.40;;;1.40;;
6679;SDS011;3376;42.664;23.346;2022-09-21T15:01:33;1.97;;;1.80;;
6679;SDS011;3376;42.664;23.346;2022-09-21T15:06:54;2.57;;;1.97;;
6679;SDS011;3376;42.664;23.346;2022-09-21T15:10:12;1.60;;;1.60;;
6679;SDS011;3376;42.664;23.346;2022-09-21T15:13:06;2.47;;;2.30;;
6679;SDS011;3376;42.664;23.346;2022-09-21T15:16:06;2.07;;;1.97;;
6679;SDS011;3376;42.664;23.346;2022-09-21T15:18:43;1.80;;;1.80;;
6679;SDS011;3376;42.664;23.346;2022-09-21T15:21:17;1.80;;;1.80;;
6679;SDS011;3376;42.664;23.346;2022-09-21T15:23:48;1.67;;;1.57;;
6679;SDS011;3376;42.664;23.346;2022-09-21T15:26:19;1.77;;;1.67;;
6679;SDS011;3376;42.664;23.346;2022-09-21T15:28:53;1.70;;;1.60;;
6679;SDS011;3376;42.664;23.346;2022-09-21T15:31:21;2.00;;;1.90;;
6679;SDS011;3376;42.664;23.346;2022-09-21T15:33:48;1.93;;;1.83;;
6679;SDS011;3376;42.664;23.346;2022-09-21T15:36:22;2.20;;;2.00;;
6679;SDS011;3376;42.664;23.346;2022-09-21T15:38:51;1.80;;;1.73;;
6679;SDS011;3376;42.664;23.346;2022-09-21T15:44:13;2.20;;;2.10;;
6679;SDS011;3376;42.664;23.346;2022-09-21T15:46:42;1.63;;;1.63;;
6679;SDS011;3376;42.664;23.346;2022-09-21T15:49:12;1.87;;;1.77;;
6679;SDS011;3376;42.664;23.346;2022-09-21T15:51:42;1.67;;;1.57;;
6679;SDS011;3376;42.664;23.346;2022-09-21T15:54:22;2.67;;;1.83;;
6679;SDS011;3376;42.664;23.346;2022-09-21T15:56:57;1.93;;;1.83;;